createdAt,value
2023-05-04T00:00:29.392Z,100584.38
2023-05-04T00:02:59.134Z,100579.63
2023-05-04T00:05:28.862Z,100584.53
2023-05-04T00:07:58.820Z,100579.97
2023-05-04T00:10:29.636Z,100582.50
2023-05-04T00:12:59.451Z,100579.97
2023-05-04T00:15:29.744Z,100577.28
2023-05-04T00:17:59.508Z,100570.50
2023-05-04T00:20:29.243Z,100573.69
2023-05-04T00:22:59.060Z,100567.63
2023-05-04T00:25:28.783Z,100560.69
2023-05-04T00:27:58.669Z,100555.47
2023-05-04T00:30:28.698Z,100552.59
2023-05-04T00:32:59.537Z,100552.59
2023-05-04T00:35:31.378Z,100546.56
2023-05-04T00:38:01.084Z,100546.34
2023-05-04T00:40:30.721Z,100539.81
2023-05-04T00:43:00.517Z,100537.09
2023-05-04T00:45:30.246Z,100545.00
2023-05-04T00:48:00.214Z,100538.56
2023-05-04T00:50:29.886Z,100538.78
2023-05-04T00:53:01.436Z,100533.59
2023-05-04T00:55:34.144Z,100528.66
2023-05-04T00:58:04.104Z,100527.78
2023-05-04T01:00:33.807Z,100530.31
2023-05-04T01:03:03.576Z,100524.66
2023-05-04T01:05:37.362Z,100522.41
2023-05-04T01:08:17.296Z,100511.84
2023-05-04T01:11:00.192Z,100515.47
2023-05-04T01:13:29.870Z,100517.59
2023-05-04T01:15:59.518Z,100507.19
2023-05-04T01:18:29.255Z,100511.53
2023-05-04T01:20:58.932Z,100508.84
2023-05-04T01:23:28.996Z,100506.25
2023-05-04T01:26:03.362Z,100509.66
2023-05-04T01:28:44.738Z,100501.16
2023-05-04T01:31:15.889Z,100506.34
2023-05-04T01:33:46.423Z,100510.13
2023-05-04T01:36:16.117Z,100510.75
2023-05-04T01:38:45.772Z,100508.28
2023-05-04T01:41:15.417Z,100506.81
2023-05-04T01:43:45.076Z,100509.50
2023-05-04T01:46:14.756Z,100514.47
2023-05-04T01:48:44.457Z,100503.06
2023-05-04T01:51:14.172Z,100507.25
2023-05-04T01:53:43.886Z,100506.41
2023-05-04T01:56:16.829Z,100490.66
2023-05-04T01:58:46.524Z,100489.63
2023-05-04T02:01:16.296Z,100478.84
2023-05-04T02:03:46.275Z,100480.50
2023-05-04T02:06:16.013Z,100470.56
2023-05-04T02:08:45.801Z,100455.63
2023-05-04T02:11:17.803Z,100457.09
2023-05-04T02:13:47.664Z,100444.44
2023-05-04T02:16:17.511Z,100444.06
2023-05-04T02:18:48.119Z,100438.69
2023-05-04T02:21:19.834Z,100431.03
2023-05-04T02:23:49.583Z,100430.66
2023-05-04T02:26:19.283Z,100421.53
2023-05-04T02:28:50.872Z,100410.75
2023-05-04T02:31:41.024Z,100405.19
2023-05-04T02:34:10.677Z,100396.28
2023-05-04T02:36:40.327Z,100391.72
2023-05-04T02:39:09.988Z,100384.28
2023-05-04T02:41:39.607Z,100384.72
2023-05-04T02:44:09.261Z,100379.50
2023-05-04T02:46:38.965Z,100373.94
2023-05-04T02:49:09.600Z,100373.53
2023-05-04T02:51:39.257Z,100366.94
2023-05-04T02:54:09.911Z,100367.19
2023-05-04T02:56:39.631Z,100351.00
2023-05-04T02:59:09.315Z,100343.97
2023-05-04T03:01:39.101Z,100336.50
2023-05-04T03:04:09.421Z,100326.31
2023-05-04T03:06:39.279Z,100322.59
2023-05-04T03:09:08.906Z,100318.22
2023-05-04T03:11:38.709Z,100305.81
2023-05-04T03:14:08.993Z,100304.19
2023-05-04T03:16:38.733Z,100296.56
2023-05-04T03:19:08.593Z,100286.31
2023-05-04T03:21:38.191Z,100285.69
2023-05-04T03:24:08.243Z,100275.78
2023-05-04T03:26:37.960Z,100267.91
2023-05-04T03:29:10.972Z,100260.88
2023-05-04T03:31:41.025Z,100246.34
2023-05-04T03:34:11.574Z,100249.47
2023-05-04T03:36:44.295Z,100247.63
2023-05-04T03:39:14.132Z,100242.03
2023-05-04T03:41:43.873Z,100244.53
2023-05-04T03:44:13.570Z,100235.00
2023-05-04T03:46:43.244Z,100230.44
2023-05-04T03:49:12.918Z,100225.88
2023-05-04T03:51:42.703Z,100225.25
2023-05-04T03:54:12.423Z,100220.28
2023-05-04T03:56:44.896Z,100221.53
2023-05-04T03:59:14.567Z,100206.38
2023-05-04T04:01:44.306Z,100202.84
2023-05-04T04:04:16.772Z,100204.28
2023-05-04T04:06:46.520Z,100191.25
2023-05-04T04:09:16.283Z,100183.75
2023-05-04T04:11:46.079Z,100175.06
2023-05-04T04:14:16.114Z,100160.50
2023-05-04T04:16:46.019Z,100158.41
2023-05-04T04:19:15.807Z,100155.97
2023-05-04T04:21:48.118Z,100153.91
2023-05-04T04:24:18.032Z,100153.25
2023-05-04T04:26:47.749Z,100145.16
2023-05-04T04:29:17.509Z,100139.75
2023-05-04T04:31:47.262Z,100134.19
2023-05-04T04:34:16.975Z,100131.06
2023-05-04T04:36:46.722Z,100126.84
2023-05-04T04:39:18.937Z,100117.09
2023-05-04T04:41:48.671Z,100112.34
2023-05-04T04:44:21.067Z,100098.84
2023-05-04T04:46:50.839Z,100097.81
2023-05-04T04:49:20.572Z,100095.94
2023-05-04T04:51:50.542Z,100086.41
2023-05-04T04:54:20.184Z,100083.94
2023-05-04T04:56:49.786Z,100073.75
2023-05-04T04:59:19.430Z,100067.50
2023-05-04T05:01:50.095Z,100060.69
2023-05-04T05:04:21.251Z,100048.25
2023-05-04T05:06:51.256Z,100046.59
2023-05-04T05:09:21.062Z,100035.78
2023-05-04T05:11:50.714Z,100032.06
2023-05-04T05:14:20.342Z,100029.75
2023-05-04T05:16:49.987Z,100033.50
2023-05-04T05:19:19.784Z,100023.75
2023-05-04T05:21:49.461Z,100028.94
2023-05-04T05:24:19.139Z,100025.41
2023-05-04T05:26:48.881Z,100025.63
2023-05-04T05:29:18.690Z,100016.91
2023-05-04T05:31:48.367Z,100007.56
2023-05-04T05:34:18.071Z,100003.63
2023-05-04T05:36:47.707Z,100005.91
2023-05-04T05:39:17.893Z,100001.75
2023-05-04T05:41:47.612Z,99997.59
2023-05-04T05:44:17.261Z,99994.09
2023-05-04T05:46:46.900Z,99999.47
2023-05-04T05:49:16.554Z,99989.75
2023-05-04T05:51:46.271Z,99993.25
2023-05-04T05:54:16.675Z,99988.47
2023-05-04T05:56:46.279Z,99985.78
2023-05-04T05:59:16.559Z,99993.66
2023-05-04T06:01:46.210Z,99978.50
2023-05-04T06:04:16.070Z,99972.28
2023-05-04T06:06:46.223Z,99967.94
2023-05-04T06:09:15.944Z,99968.78
2023-05-04T06:11:45.571Z,99962.13
2023-05-04T06:14:15.198Z,99959.22
2023-05-04T06:16:44.907Z,99958.78
2023-05-04T06:19:14.725Z,99956.31
2023-05-04T06:21:44.398Z,99948.84
2023-05-04T06:24:14.061Z,99947.19
2023-05-04T06:26:43.942Z,99950.72
2023-05-04T06:29:13.926Z,99941.78
2023-05-04T06:31:45.097Z,99935.97
2023-05-04T06:34:15.893Z,99939.94
2023-05-04T06:36:46.012Z,99947.81
2023-05-04T06:39:15.705Z,99936.59
2023-05-04T06:41:45.363Z,99939.94
2023-05-04T06:44:15.074Z,99932.06
2023-05-04T06:46:44.691Z,99927.53
2023-05-04T06:49:14.458Z,99926.88
2023-05-04T06:51:44.283Z,99925.03
2023-05-04T06:54:14.663Z,99916.97
2023-05-04T06:56:44.852Z,99919.22
2023-05-04T06:59:14.834Z,99919.22
2023-05-04T07:01:44.654Z,99915.69
2023-05-04T07:04:14.472Z,99917.19
2023-05-04T07:06:46.752Z,99911.38
2023-05-04T07:09:16.708Z,99913.03
2023-05-04T07:11:46.393Z,99914.91
2023-05-04T07:14:16.904Z,99915.50
2023-05-04T07:16:46.681Z,99915.50
2023-05-04T07:19:16.367Z,99896.84
2023-05-04T07:21:45.973Z,99901.00
2023-05-04T07:24:15.695Z,99900.59
2023-05-04T07:26:45.311Z,99893.34
2023-05-04T07:29:14.933Z,99886.06
2023-05-04T07:31:44.568Z,99886.66
2023-05-04T07:34:14.272Z,99879.22
2023-05-04T07:36:43.946Z,99876.94
2023-05-04T07:39:14.120Z,99882.13
2023-05-04T07:41:43.853Z,99872.81
2023-05-04T07:44:14.004Z,99875.91
2023-05-04T07:46:43.637Z,99873.66
2023-05-04T07:49:13.355Z,99873.41
2023-05-04T07:51:43.199Z,99871.97
2023-05-04T07:54:12.864Z,99872.59
2023-05-04T07:56:42.822Z,99859.75
2023-05-04T07:59:12.470Z,99858.72
2023-05-04T08:01:43.774Z,99857.91
2023-05-04T08:04:13.935Z,99852.91
2023-05-04T08:06:43.708Z,99853.75
2023-05-04T08:09:13.985Z,99859.56
2023-05-04T08:11:43.809Z,99861.84
2023-05-04T08:14:16.473Z,99853.97
2023-05-04T08:16:46.175Z,99855.41
2023-05-04T08:19:15.819Z,99858.09
2023-05-04T08:21:45.530Z,99854.38
2023-05-04T08:24:15.255Z,99856.22
2023-05-04T08:26:49.588Z,99855.41
2023-05-04T08:29:25.467Z,99853.16
2023-05-04T08:31:57.114Z,99854.81
2023-05-04T08:34:27.237Z,99853.56
2023-05-04T08:36:56.947Z,99857.28
2023-05-04T08:39:26.682Z,99856.47
2023-05-04T08:41:56.289Z,99849.19
2023-05-04T08:44:26.032Z,99843.59
2023-05-04T08:46:55.684Z,99847.97
2023-05-04T08:49:25.996Z,99851.91
2023-05-04T08:51:55.632Z,99847.56
2023-05-04T08:54:25.742Z,99848.38
2023-05-04T08:56:56.630Z,99850.63
2023-05-04T08:59:26.282Z,99835.94
2023-05-04T09:01:58.609Z,99844.84
2023-05-04T09:04:29.667Z,99835.94
2023-05-04T09:07:00.080Z,99833.25
2023-05-04T09:09:30.638Z,99841.94
2023-05-04T09:12:00.505Z,99833.47
2023-05-04T09:14:39.009Z,99836.16
2023-05-04T09:17:16.290Z,99835.13
2023-05-04T09:19:46.531Z,99833.47
2023-05-04T09:22:20.905Z,99839.25
2023-05-04T09:24:50.646Z,99839.06
2023-05-04T09:27:20.243Z,99838.22
2023-05-04T09:29:56.564Z,99843.59
2023-05-04T09:32:26.337Z,99836.78
2023-05-04T09:34:56.290Z,99844.84
2023-05-04T09:37:25.939Z,99845.91
2023-05-04T09:40:00.396Z,99854.38
2023-05-04T09:42:30.283Z,99853.75
2023-05-04T09:45:03.551Z,99859.34
2023-05-04T09:47:40.857Z,99859.97
2023-05-04T09:50:21.332Z,99861.03
2023-05-04T09:52:51.559Z,99864.53
2023-05-04T09:55:21.977Z,99853.56
2023-05-04T09:57:52.488Z,99857.50
2023-05-04T10:00:22.607Z,99851.91
2023-05-04T10:02:52.240Z,99846.50
2023-05-04T10:05:23.216Z,99849.44
2023-05-04T10:07:53.580Z,99846.91
2023-05-04T10:10:23.498Z,99839.25
2023-05-04T10:12:53.210Z,99853.34
2023-05-04T10:15:22.967Z,99847.34
2023-05-04T10:18:17.231Z,99845.88
2023-05-04T10:21:05.049Z,99849.22
2023-05-04T10:23:46.495Z,99841.09
2023-05-04T10:26:31.448Z,99846.09
2023-05-04T10:29:23.624Z,99839.44
2023-05-04T10:31:54.858Z,99844.22
2023-05-04T10:34:42.450Z,99848.56
2023-05-04T10:37:18.949Z,99850.44
2023-05-04T10:39:58.127Z,99850.81
2023-05-04T10:42:27.753Z,99850.66
2023-05-04T10:44:58.169Z,99846.72
2023-05-04T10:47:34.503Z,99845.47
2023-05-04T10:50:16.052Z,99844.00
2023-05-04T10:52:49.434Z,99849.19
2023-05-04T10:55:19.980Z,99852.13
2023-05-04T10:57:56.932Z,99852.09
2023-05-04T11:00:37.393Z,99838.00
2023-05-04T11:03:08.946Z,99839.47
2023-05-04T11:05:56.016Z,99839.28
2023-05-04T11:08:26.840Z,99840.91
2023-05-04T11:11:08.394Z,99835.94
2023-05-04T11:13:41.239Z,99842.38
2023-05-04T11:16:11.028Z,99845.28
2023-05-04T11:18:40.814Z,99852.94
2023-05-04T11:21:11.258Z,99840.06
2023-05-04T11:23:40.962Z,99843.81
2023-05-04T11:26:10.847Z,99841.13
2023-05-04T11:28:41.119Z,99841.13
2023-05-04T11:31:18.472Z,99841.34
2023-05-04T11:33:49.677Z,99844.63
2023-05-04T11:36:19.679Z,99844.44
2023-05-04T11:38:49.480Z,99857.47
2023-05-04T11:41:19.171Z,99856.88
2023-05-04T11:43:48.829Z,99864.94
2023-05-04T11:46:18.564Z,99853.13
2023-05-04T11:48:48.729Z,99865.13
2023-05-04T11:51:18.634Z,99860.63
2023-05-04T11:53:48.520Z,99857.09
2023-05-04T11:56:18.107Z,99866.38
2023-05-04T11:58:47.775Z,99868.91
2023-05-04T12:01:17.440Z,99866.38
2023-05-04T12:03:53.978Z,99866.38
2023-05-04T12:06:34.712Z,99863.69
2023-05-04T12:09:06.360Z,99856.66
2023-05-04T12:11:37.211Z,99871.78
2023-05-04T12:14:16.984Z,99869.09
2023-05-04T12:16:59.319Z,99868.69
2023-05-04T12:19:28.908Z,99878.22
2023-05-04T12:22:00.383Z,99871.78
2023-05-04T12:24:30.029Z,99879.25
2023-05-04T12:26:59.645Z,99881.31
2023-05-04T12:29:29.291Z,99880.88
2023-05-04T12:31:59.063Z,99867.41
2023-05-04T12:34:28.712Z,99879.88
2023-05-04T12:36:58.352Z,99882.75
2023-05-04T12:39:30.274Z,99883.81
2023-05-04T12:42:00.347Z,99883.59
2023-05-04T12:44:30.252Z,99887.31
2023-05-04T12:46:59.854Z,99867.22
2023-05-04T12:49:29.499Z,99863.50
2023-05-04T12:51:59.742Z,99866.41
2023-05-04T12:54:29.401Z,99861.22
2023-05-04T12:57:02.168Z,99863.50
2023-05-04T12:59:31.864Z,99857.28
2023-05-04T13:02:01.551Z,99862.88
2023-05-04T13:04:31.277Z,99860.19
2023-05-04T13:07:00.956Z,99853.94
2023-05-04T13:09:30.634Z,99866.59
2023-05-04T13:12:00.319Z,99865.59
2023-05-04T13:14:30.303Z,99860.19
2023-05-04T13:17:00.555Z,99859.34
2023-05-04T13:19:30.481Z,99855.00
2023-05-04T13:22:00.121Z,99851.25
2023-05-04T13:24:31.204Z,99845.25
2023-05-04T13:27:00.960Z,99849.59
2023-05-04T13:29:30.632Z,99842.56
2023-05-04T13:32:01.072Z,99842.16
2023-05-04T13:34:30.813Z,99843.00
2023-05-04T13:37:00.489Z,99842.16
2023-05-04T13:39:30.137Z,99839.66
2023-05-04T13:41:59.758Z,99839.66
2023-05-04T13:44:29.379Z,99827.22
2023-05-04T13:46:59.046Z,99828.88
2023-05-04T13:49:28.793Z,99826.00
2023-05-04T13:52:01.563Z,99820.81
2023-05-04T13:54:31.232Z,99813.53
2023-05-04T13:57:02.069Z,99814.59
2023-05-04T13:59:32.453Z,99811.91
2023-05-04T14:02:02.903Z,99806.31
2023-05-04T14:04:33.237Z,99800.28
2023-05-04T14:07:02.897Z,99795.53
2023-05-04T14:09:32.562Z,99796.38
2023-05-04T14:12:02.178Z,99795.72
2023-05-04T14:14:31.871Z,99800.28
2023-05-04T14:17:01.487Z,99799.25
2023-05-04T14:19:31.101Z,99795.94
2023-05-04T14:22:00.861Z,99793.25
2023-05-04T14:24:31.193Z,99796.56
2023-05-04T14:27:00.798Z,99789.53
2023-05-04T14:29:30.422Z,99790.56
2023-05-04T14:32:00.299Z,99785.78
2023-05-04T14:34:29.995Z,99774.19
2023-05-04T14:36:59.687Z,99779.56
2023-05-04T14:39:29.441Z,99775.00
2023-05-04T14:41:59.643Z,99769.00
2023-05-04T14:44:31.433Z,99772.53
2023-05-04T14:47:01.177Z,99763.41
2023-05-04T14:52:05.353Z,99768.19
2023-05-04T14:54:34.970Z,99769.84
2023-05-04T14:57:04.886Z,99769.84
2023-05-04T14:59:34.462Z,99767.16
2023-05-04T15:02:06.970Z,99768.78
2023-05-04T15:04:36.686Z,99752.03
2023-05-04T15:07:07.055Z,99759.88
2023-05-04T15:09:37.171Z,99758.25
2023-05-04T15:12:07.149Z,99743.94
2023-05-04T15:14:38.415Z,99738.56
2023-05-04T15:17:08.788Z,99741.03
2023-05-04T15:19:41.634Z,99743.31
2023-05-04T15:22:11.261Z,99738.34
2023-05-04T15:24:40.933Z,99736.47
2023-05-04T15:27:10.631Z,99729.66
2023-05-04T15:29:40.268Z,99740.22
2023-05-04T15:32:09.962Z,99725.09
2023-05-04T15:34:39.577Z,99725.91
2023-05-04T15:37:09.217Z,99719.91
2023-05-04T15:39:38.985Z,99713.69
2023-05-04T15:42:08.673Z,99712.69
2023-05-04T15:44:38.389Z,99716.19
2023-05-04T15:49:44.794Z,99705.59
2023-05-04T15:52:14.396Z,99703.75
2023-05-04T15:54:44.090Z,99696.50
2023-05-04T15:57:13.760Z,99696.50
2023-05-04T15:59:43.506Z,99688.44
2023-05-04T16:02:13.302Z,99675.97
2023-05-04T16:04:44.038Z,99681.38
2023-05-04T16:07:13.746Z,99673.28
2023-05-04T16:09:43.462Z,99671.41
2023-05-04T16:12:13.156Z,99662.50
2023-05-04T16:14:43.028Z,99657.94
2023-05-04T16:17:12.786Z,99647.63
2023-05-04T16:19:42.804Z,99647.41
2023-05-04T16:22:12.487Z,99653.41
2023-05-04T16:24:42.140Z,99626.66
2023-05-04T16:27:11.741Z,99624.81
2023-05-04T16:29:42.088Z,99624.81
2023-05-04T16:34:41.080Z,99608.03
2023-05-04T16:37:11.066Z,99608.44
2023-05-04T16:39:41.047Z,99604.94
2023-05-04T16:42:10.887Z,99600.56
2023-05-04T16:44:40.510Z,99601.63
2023-05-04T16:47:10.131Z,99589.78
2023-05-04T16:49:39.786Z,99590.84
2023-05-04T16:52:09.446Z,99570.34
2023-05-04T16:54:39.090Z,99572.81
2023-05-04T16:57:09.024Z,99559.56
2023-05-04T16:59:38.661Z,99562.03
2023-05-04T17:02:10.038Z,99557.69
2023-05-04T17:04:40.108Z,99556.66
2023-05-04T17:07:10.888Z,99550.66
2023-05-04T17:09:40.854Z,99567.41
2023-05-04T17:12:10.510Z,99563.91
2023-05-04T17:14:40.124Z,99552.31
2023-05-04T17:17:09.832Z,99542.59
2023-05-04T17:19:41.976Z,99545.28
2023-05-04T17:22:12.730Z,99542.34
2023-05-04T17:24:45.295Z,99536.16
2023-05-04T17:27:15.397Z,99529.94
2023-05-04T17:29:45.618Z,99531.00
2023-05-04T17:32:15.330Z,99520.22
2023-05-04T17:34:45.093Z,99514.59
2023-05-04T17:37:14.694Z,99507.56
2023-05-04T17:39:44.327Z,99506.53
2023-05-04T17:42:14.994Z,99501.97
2023-05-04T17:44:44.665Z,99491.41
2023-05-04T17:47:14.298Z,99497.63
2023-05-04T17:49:43.919Z,99496.81
2023-05-04T17:52:16.971Z,99493.06
2023-05-04T17:54:46.555Z,99486.84
2023-05-04T17:57:18.088Z,99494.94
2023-05-04T17:59:48.674Z,99478.38
2023-05-04T18:02:18.330Z,99485.22
2023-05-04T18:04:47.914Z,99493.88
2023-05-04T18:07:17.571Z,99487.66
2023-05-04T18:09:47.272Z,99478.78
2023-05-04T18:12:17.181Z,99487.66
2023-05-04T18:14:46.769Z,99477.13
2023-05-04T18:17:16.492Z,99474.44
2023-05-04T18:19:46.495Z,99469.03
2023-05-04T18:22:16.101Z,99472.56
2023-05-04T18:24:49.340Z,99471.75
2023-05-04T18:27:18.996Z,99467.41
2023-05-04T18:29:50.029Z,99471.75
2023-05-04T18:32:19.712Z,99469.03
2023-05-04T18:34:53.131Z,99465.31
2023-05-04T18:37:26.524Z,99455.78
2023-05-04T18:39:56.219Z,99455.59
2023-05-04T18:42:26.035Z,99446.69
2023-05-04T18:44:56.299Z,99448.31
2023-05-04T18:47:25.953Z,99444.81
2023-05-04T18:49:57.709Z,99458.47
2023-05-04T18:52:27.422Z,99455.78
2023-05-04T18:54:57.459Z,99451.25
2023-05-04T18:57:29.427Z,99447.69
2023-05-04T18:59:59.717Z,99449.38
2023-05-04T19:02:31.375Z,99450.38
2023-05-04T19:05:01.048Z,99451.00
2023-05-04T19:07:33.393Z,99445.84
2023-05-04T19:10:03.217Z,99442.31
2023-05-04T19:12:33.063Z,99451.25
2023-05-04T19:15:02.801Z,99444.19
2023-05-04T19:17:32.461Z,99439.41
2023-05-04T19:20:02.726Z,99433.41
2023-05-04T19:22:32.977Z,99438.78
2023-05-04T19:25:02.632Z,99433.22
2023-05-04T19:27:32.320Z,99428.84
2023-05-04T19:30:02.010Z,99434.84
2023-05-04T19:32:34.237Z,99429.69
2023-05-04T19:35:04.088Z,99426.78
2023-05-04T19:37:34.219Z,99428.66
2023-05-04T19:40:03.890Z,99412.50
2023-05-04T19:42:33.643Z,99405.22
2023-05-04T19:45:03.258Z,99417.88
2023-05-04T19:47:33.895Z,99408.75
2023-05-04T19:50:03.571Z,99401.09
2023-05-04T19:52:33.146Z,99398.41
2023-05-04T19:55:02.780Z,99388.25
2023-05-04T19:57:32.453Z,99380.38
2023-05-04T20:00:02.422Z,99373.97
2023-05-04T20:02:32.720Z,99372.91
2023-05-04T20:05:02.437Z,99370.66
2023-05-04T20:07:32.073Z,99365.88
2023-05-04T20:10:01.885Z,99352.25
2023-05-04T20:12:31.576Z,99355.97
2023-05-04T20:15:01.245Z,99353.28
2023-05-04T20:17:31.000Z,99359.72
2023-05-04T20:20:00.777Z,99354.78
2023-05-04T20:22:30.484Z,99363.03
2023-05-04T20:25:00.437Z,99352.53
2023-05-04T20:27:30.057Z,99355.59
2023-05-04T20:30:00.408Z,99360.19
2023-05-04T20:32:30.420Z,99348.59
2023-05-04T20:35:00.034Z,99355.44
2023-05-04T20:37:29.799Z,99351.53
2023-05-04T20:39:59.407Z,99351.25
2023-05-04T20:42:29.054Z,99342.56
2023-05-04T20:44:58.671Z,99340.03
2023-05-04T20:47:28.352Z,99342.16
2023-05-04T20:49:58.180Z,99337.19
2023-05-04T20:52:27.809Z,99338.63
2023-05-04T20:54:57.565Z,99331.41
2023-05-04T20:57:27.406Z,99334.06
2023-05-04T20:59:57.952Z,99334.53
2023-05-04T21:02:27.697Z,99334.78
2023-05-04T21:04:57.357Z,99334.31
2023-05-04T21:07:27.213Z,99332.22
2023-05-04T21:10:00.260Z,99330.84
2023-05-04T21:12:29.997Z,99331.44
2023-05-04T21:14:59.629Z,99328.63
2023-05-04T21:17:29.373Z,99337.13
2023-05-04T21:19:59.026Z,99328.50
2023-05-04T21:22:29.584Z,99337.06
2023-05-04T21:24:59.191Z,99338.28
2023-05-04T21:27:28.808Z,99334.81
2023-05-04T21:29:58.541Z,99335.47
2023-05-04T21:32:28.988Z,99335.22
2023-05-04T21:34:58.648Z,99334.59
2023-05-04T21:37:28.463Z,99332.47
2023-05-04T21:39:58.218Z,99334.44
2023-05-04T21:42:27.867Z,99334.66
2023-05-04T21:45:00.304Z,99336.25
2023-05-04T21:47:29.998Z,99326.09
2023-05-04T21:49:59.593Z,99332.34
2023-05-04T21:52:29.223Z,99331.84
2023-05-04T21:54:58.943Z,99331.91
2023-05-04T21:57:29.134Z,99335.16
2023-05-04T21:59:58.776Z,99334.47
2023-05-04T22:02:28.391Z,99330.22
2023-05-04T22:04:58.061Z,99328.50
2023-05-04T22:07:28.236Z,99323.94
2023-05-04T22:09:57.835Z,99320.59
2023-05-04T22:12:27.593Z,99311.53
2023-05-04T22:14:57.297Z,99307.72
2023-05-04T22:17:27.076Z,99307.44
2023-05-04T22:19:56.759Z,99315.16
2023-05-04T22:22:26.511Z,99311.66
2023-05-04T22:24:56.276Z,99303.47
2023-05-04T22:27:25.979Z,99283.94
2023-05-04T22:29:55.628Z,99292.47
2023-05-04T22:32:25.316Z,99285.19
2023-05-04T22:34:54.998Z,99285.78
2023-05-04T22:37:24.677Z,99284.38
2023-05-04T22:39:54.594Z,99278.63
2023-05-04T22:42:24.819Z,99281.06
2023-05-04T22:44:54.473Z,99278.38
2023-05-04T22:47:24.199Z,99274.44
2023-05-04T22:49:57.728Z,99281.63
2023-05-04T22:52:27.390Z,99273.38
2023-05-04T22:54:57.063Z,99265.84
2023-05-04T22:57:27.178Z,99268.25
2023-05-04T22:59:56.829Z,99267.41
2023-05-04T23:02:26.617Z,99266.00
2023-05-04T23:04:56.410Z,99267.84
2023-05-04T23:07:26.105Z,99251.84
2023-05-04T23:09:55.796Z,99255.97
2023-05-04T23:12:26.954Z,99256.78
2023-05-04T23:14:56.580Z,99260.84
2023-05-04T23:17:26.341Z,99252.22
2023-05-04T23:19:56.031Z,99254.69
2023-05-04T23:22:26.314Z,99253.63
2023-05-04T23:24:56.187Z,99246.34
2023-05-04T23:27:25.854Z,99246.47
2023-05-04T23:29:55.696Z,99245.41
2023-05-04T23:32:25.344Z,99251.81
2023-05-04T23:34:55.403Z,99243.19
2023-05-04T23:37:25.079Z,99253.47
2023-05-04T23:39:54.687Z,99246.03
2023-05-04T23:42:24.336Z,99243.84
2023-05-04T23:44:57.228Z,99252.66
2023-05-04T23:47:26.957Z,99252.50
2023-05-04T23:49:56.667Z,99252.47
2023-05-04T23:52:26.357Z,99245.78
2023-05-04T23:54:56.436Z,99248.88
2023-05-04T23:57:26.134Z,99246.56
2023-05-04T23:59:55.777Z,99242.59
